Time;durP1;ratioP1;P1;durP2;ratioP2;P2;SDS_P1;SDS_P2;PMS_P1;PMS_P2;Temp;Humidity;BMP_temperature;BMP_pressure;BME280_temperature;BME280_humidity;BME280_pressure;Samples;Min_cycle;Max_cycle;Signal;HPM_P1;HPM_P2
2024/04/18 00:01:38;;;;;;;8.73;5.63;;;2.50;99.90;;;;;;7374661;19;20019;-65
2024/04/18 00:04:06;;;;;;;10.20;5.75;;;2.50;99.90;;;;;;7375225;19;20084;-65
2024/04/18 00:06:36;;;;;;;9.18;5.57;;;2.50;99.90;;;;;;7375825;19;20023;-64
2024/04/18 00:09:06;;;;;;;6.93;5.20;;;2.50;99.90;;;;;;7376301;19;20018;-66
2024/04/18 00:11:33;;;;;;;9.00;5.30;;;2.50;99.90;;;;;;7374860;19;20019;-64
2024/04/18 00:13:59;;;;;;;8.07;5.25;;;2.40;99.90;;;;;;7373682;19;20021;-65
2024/04/18 00:16:34;;;;;;;11.00;5.35;;;2.40;99.90;;;;;;7373816;19;20097;-64
2024/04/18 00:19:17;;;;;;;7.68;5.03;;;2.40;99.90;;;;;;7376243;19;20018;-65
2024/04/18 00:21:56;;;;;;;10.65;5.07;;;2.40;99.90;;;;;;7371180;19;20753;-64
2024/04/18 00:24:29;;;;;;;6.25;4.90;;;2.40;99.90;;;;;;7371594;19;20039;-64
2024/04/18 00:26:55;;;;;;;10.15;6.03;;;2.40;99.90;;;;;;7376741;19;20018;-65
2024/04/18 00:29:36;;;;;;;7.25;5.07;;;2.40;99.90;;;;;;7372117;19;20027;-64
2024/04/18 00:32:11;;;;;;;8.20;5.25;;;2.40;99.90;;;;;;7375574;19;20090;-64
2024/04/18 00:34:38;;;;;;;8.85;6.32;;;2.40;99.90;;;;;;7373978;19;20642;-64
2024/04/18 00:37:04;;;;;;;9.32;5.75;;;2.40;99.90;;;;;;7375619;19;20030;-65
2024/04/18 00:39:50;;;;;;;8.98;5.93;;;2.40;99.90;;;;;;7381411;19;20039;-64
2024/04/18 00:42:39;;;;;;;9.02;5.60;;;2.40;99.90;;;;;;7380004;19;20669;-65
2024/04/18 00:45:07;;;;;;;8.05;5.85;;;2.40;99.90;;;;;;7383937;19;20049;-64
2024/04/18 00:47:47;;;;;;;13.32;5.43;;;2.40;99.90;;;;;;7379823;19;20445;-65
2024/04/18 00:50:16;;;;;;;9.65;6.20;;;2.40;99.90;;;;;;7384402;19;20018;-64
2024/04/18 00:53:02;;;;;;;8.10;5.65;;;2.30;99.90;;;;;;7379057;19;20025;-64
2024/04/18 00:55:29;;;;;;;13.23;6.00;;;2.40;99.90;;;;;;7382628;19;20045;-64
2024/04/18 00:58:25;;;;;;;11.23;6.50;;;2.20;99.90;;;;;;7383703;19;20129;-65
2024/04/18 01:01:12;;;;;;;10.43;5.40;;;2.30;99.90;;;;;;7381221;19;20019;-67
2024/04/18 01:03:55;;;;;;;10.95;5.95;;;2.30;99.90;;;;;;7379836;19;20495;-65
2024/04/18 01:06:42;;;;;;;11.57;5.72;;;2.40;99.90;;;;;;7377521;19;20031;-66
2024/04/18 01:09:16;;;;;;;10.95;5.65;;;2.40;99.90;;;;;;7377800;19;20022;-63
2024/04/18 01:12:01;;;;;;;11.40;6.70;;;2.40;99.90;;;;;;7381238;19;20018;-63
2024/04/18 01:14:27;;;;;;;8.30;5.88;;;2.40;99.90;;;;;;7379485;19;20849;-64
2024/04/18 01:17:04;;;;;;;10.32;6.07;;;2.40;99.90;;;;;;7381373;19;20102;-64
2024/04/18 01:19:31;;;;;;;10.77;5.60;;;2.40;99.90;;;;;;7381190;19;20045;-64
2024/04/18 01:21:57;;;;;;;8.50;5.13;;;2.40;99.90;;;;;;7383359;19;20022;-64
2024/04/18 01:24:24;;;;;;;9.15;5.57;;;2.40;99.90;;;;;;7380523;19;20043;-64
2024/04/18 01:26:50;;;;;;;13.75;5.65;;;2.30;99.90;;;;;;7379394;19;20038;-64
2024/04/18 01:29:16;;;;;;;9.68;5.50;;;2.30;99.90;;;;;;7380453;19;20094;-65
2024/04/18 01:32:01;;;;;;;10.27;5.35;;;2.30;99.90;;;;;;7378807;19;21764;-65
2024/04/18 01:34:27;;;;;;;11.40;5.20;;;2.30;99.90;;;;;;7380291;19;20913;-64
2024/04/18 01:37:12;;;;;;;8.32;4.97;;;2.20;99.90;;;;;;7381609;19;20145;-64
2024/04/18 01:39:43;;;;;;;11.52;5.43;;;2.20;99.90;;;;;;7379226;19;20621;-65
2024/04/18 01:42:12;;;;;;;8.07;5.07;;;2.20;99.90;;;;;;7378848;19;20105;-66
2024/04/18 01:44:44;;;;;;;8.50;5.18;;;2.20;99.90;;;;;;7379452;19;20847;-66
2024/04/18 01:47:30;;;;;;;10.30;5.43;;;2.20;99.90;;;;;;7378120;19;20029;-65
2024/04/18 01:50:06;;;;;;;9.95;4.75;;;2.20;99.90;;;;;;7378298;19;20028;-65
2024/04/18 01:52:32;;;;;;;7.68;4.85;;;2.10;99.90;;;;;;7370965;19;20108;-65
2024/04/18 01:55:08;;;;;;;7.00;5.10;;;2.10;99.90;;;;;;7378770;19;20463;-65
2024/04/18 01:57:36;;;;;;;8.80;5.50;;;2.10;99.90;;;;;;7379181;19;20074;-64
2024/04/18 02:00:21;;;;;;;7.53;5.22;;;2.00;99.90;;;;;;7378375;19;20090;-64
2024/04/18 02:02:48;;;;;;;10.18;5.57;;;2.10;99.90;;;;;;7378259;19;20021;-66
2024/04/18 02:05:34;;;;;;;9.10;4.90;;;2.00;99.90;;;;;;7376411;19;20803;-64
2024/04/18 02:08:19;;;;;;;7.65;4.40;;;2.00;99.90;;;;;;7379216;19;20045;-64
2024/04/18 02:10:48;;;;;;;9.75;5.07;;;2.00;99.90;;;;;;7381117;19;20515;-64
2024/04/18 02:13:34;;;;;;;9.82;4.70;;;2.00;99.90;;;;;;7379383;19;20022;-64
2024/04/18 02:16:01;;;;;;;8.13;4.80;;;2.00;99.90;;;;;;7378246;19;20007;-64
2024/04/18 02:18:46;;;;;;;10.60;4.40;;;1.90;99.90;;;;;;7377355;19;20078;-64
2024/04/18 02:21:13;;;;;;;8.00;4.25;;;2.00;99.90;;;;;;7379661;19;20761;-64
2024/04/18 02:23:51;;;;;;;7.35;4.55;;;1.90;99.90;;;;;;7376500;19;20082;-66
2024/04/18 02:26:17;;;;;;;8.25;4.40;;;1.90;99.90;;;;;;7378797;19;20014;-65
2024/04/18 02:28:44;;;;;;;9.98;4.97;;;1.80;99.90;;;;;;7377672;19;20011;-66
2024/04/18 02:31:16;;;;;;;;;;;1.80;99.90;;;;;;7380113;19;20051;-65
2024/04/18 02:33:54;;;;;;;9.85;4.30;;;1.80;99.90;;;;;;7379992;19;19975;-64
2024/04/18 02:36:36;;;;;;;10.85;4.78;;;1.80;99.90;;;;;;7379683;19;20029;-64
2024/04/18 02:39:12;;;;;;;7.20;4.68;;;1.80;99.90;;;;;;7380149;19;20014;-65
2024/04/18 02:41:38;;;;;;;8.50;5.20;;;1.70;99.90;;;;;;7377763;19;20019;-64
2024/04/18 02:44:24;;;;;;;7.07;4.30;;;1.70;99.90;;;;;;7371626;19;20770;-65
2024/04/18 02:46:51;;;;;;;6.60;4.15;;;1.60;99.90;;;;;;7378678;19;20022;-64
2024/04/18 02:49:17;;;;;;;8.45;5.07;;;1.60;99.90;;;;;;7378065;19;20535;-64
2024/04/18 02:51:57;;;;;;;8.57;4.60;;;1.60;99.90;;;;;;7377742;19;20015;-65
2024/04/18 02:54:42;;;;;;;8.02;4.93;;;1.60;99.90;;;;;;7374250;19;20018;-65
2024/04/18 02:57:08;;;;;;;8.57;5.00;;;1.50;99.90;;;;;;7376655;19;20018;-65
2024/04/18 02:59:36;;;;;;;7.75;4.82;;;1.60;99.90;;;;;;7377207;19;20018;-63
2024/04/18 03:02:22;;;;;;;9.48;5.90;;;1.50;99.90;;;;;;7379759;19;20078;-66
2024/04/18 03:04:51;;;;;;;6.60;4.32;;;1.50;99.90;;;;;;7376040;19;20018;-65
2024/04/18 03:07:17;;;;;;;9.50;5.05;;;1.50;99.90;;;;;;7377171;19;20035;-64
2024/04/18 03:09:47;;;;;;;10.30;4.70;;;1.50;99.90;;;;;;7374635;19;20386;-64
2024/04/18 03:12:25;;;;;;;5.90;3.85;;;1.40;99.90;;;;;;7378283;19;20006;-64
2024/04/18 03:15:11;;;;;;;8.13;4.25;;;1.40;99.90;;;;;;7376806;19;20109;-64
2024/04/18 03:17:41;;;;;;;6.82;4.93;;;1.40;99.90;;;;;;7378050;19;20999;-65
2024/04/18 03:20:27;;;;;;;8.13;4.75;;;1.30;99.90;;;;;;7376471;19;20690;-64
2024/04/18 03:23:06;;;;;;;8.85;4.40;;;1.40;99.90;;;;;;7377273;19;20775;-64
2024/04/18 03:25:36;;;;;;;5.80;4.65;;;1.30;99.90;;;;;;7376329;19;20858;-65
2024/04/18 03:28:02;;;;;;;7.85;4.53;;;1.30;99.90;;;;;;7375570;19;20013;-65
2024/04/18 03:30:28;;;;;;;9.43;5.45;;;1.20;99.90;;;;;;7375360;19;20498;-65
2024/04/18 03:33:10;;;;;;;6.10;3.95;;;1.20;99.90;;;;;;7375213;19;20022;-65
2024/04/18 03:35:42;;;;;;;6.50;4.30;;;1.30;99.90;;;;;;7374710;19;20022;-65
2024/04/18 03:38:15;;;;;;;9.27;5.07;;;1.20;99.90;;;;;;7376467;19;20180;-65
2024/04/18 03:40:41;;;;;;;6.78;4.70;;;1.20;99.90;;;;;;7375170;19;20014;-65
2024/04/18 03:43:07;;;;;;;7.70;4.40;;;1.10;99.90;;;;;;7376333;19;20014;-64
2024/04/18 03:45:33;;;;;;;9.35;4.95;;;1.10;99.90;;;;;;7374467;19;20014;-65
2024/04/18 03:48:19;;;;;;;8.80;4.60;;;1.10;99.90;;;;;;7378125;19;20078;-64
2024/04/18 03:50:45;;;;;;;7.70;4.80;;;1.10;99.90;;;;;;7373507;19;20025;-64
2024/04/18 03:53:22;;;;;;;8.48;4.20;;;1.10;99.90;;;;;;7376742;19;20538;-64
2024/04/18 03:56:07;;;;;;;7.13;4.28;;;1.10;99.90;;;;;;7376023;19;20014;-65
2024/04/18 03:58:33;;;;;;;9.40;4.32;;;1.10;99.90;;;;;;7376106;19;20031;-65
2024/04/18 04:00:59;;;;;;;9.45;4.63;;;1.10;99.90;;;;;;7376886;19;20367;-65
2024/04/18 04:03:44;;;;;;;8.57;5.15;;;1.10;99.90;;;;;;7374907;19;20019;-63
2024/04/18 04:06:10;;;;;;;7.07;4.72;;;1.00;99.90;;;;;;7375065;19;20023;-66
2024/04/18 04:08:37;;;;;;;7.25;4.18;;;1.00;99.90;;;;;;7372285;19;20757;-64
2024/04/18 04:11:20;;;;;;;6.85;4.72;;;1.00;99.90;;;;;;7378850;19;20025;-64
2024/04/18 04:13:46;;;;;;;8.07;4.38;;;1.00;99.90;;;;;;7382851;19;20022;-64
2024/04/18 04:16:18;;;;;;;9.20;4.88;;;1.00;99.90;;;;;;7381095;19;20029;-66
2024/04/18 04:19:04;;;;;;;9.38;4.70;;;1.00;99.90;;;;;;7383211;19;20026;-65
2024/04/18 04:21:49;;;;;;;7.07;4.85;;;1.00;99.90;;;;;;7381327;19;20486;-68
2024/04/18 04:24:15;;;;;;;10.38;5.13;;;1.00;99.90;;;;;;7383616;19;20023;-64
2024/04/18 04:27:10;;;;;;;8.55;4.85;;;0.90;99.90;;;;;;7379325;19;20693;-64
2024/04/18 04:29:37;;;;;;;7.47;4.57;;;0.90;99.90;;;;;;7381966;19;20023;-67
2024/04/18 04:32:03;;;;;;;16.92;5.43;;;1.00;99.90;;;;;;7382667;19;20026;-65
2024/04/18 04:34:29;;;;;;;10.02;4.95;;;1.00;99.90;;;;;;7381288;19;20499;-64
2024/04/18 04:36:56;;;;;;;10.70;5.57;;;1.00;99.90;;;;;;7379624;19;20014;-65
2024/04/18 04:39:22;;;;;;;9.95;5.97;;;1.10;99.90;;;;;;7382774;19;20054;-65
2024/04/18 04:41:50;;;;;;;11.02;6.15;;;1.20;99.90;;;;;;7381010;19;20077;-63
2024/04/18 04:44:16;;;;;;;9.82;6.50;;;1.30;99.90;;;;;;7382277;19;20015;-64
2024/04/18 04:46:50;;;;;;;12.18;5.97;;;1.30;99.90;;;;;;7381608;19;20025;-64
2024/04/18 04:49:18;;;;;;;12.13;5.78;;;1.40;99.90;;;;;;7381983;19;20039;-64
2024/04/18 04:52:02;;;;;;;10.98;5.40;;;1.40;99.90;;;;;;7381747;19;20022;-64
2024/04/18 04:54:42;;;;;;;13.25;5.65;;;1.50;99.90;;;;;;7381174;19;20018;-65
2024/04/18 04:57:09;;;;;;;10.90;6.15;;;1.60;99.90;;;;;;7381647;19;20132;-65
2024/04/18 04:59:37;;;;;;;14.23;6.90;;;1.70;99.90;;;;;;7379723;19;20094;-64
2024/04/18 05:02:05;;;;;;;14.10;6.22;;;1.80;99.90;;;;;;7381446;19;20010;-63
2024/04/18 05:04:52;;;;;;;11.07;5.75;;;1.80;99.90;;;;;;7379941;19;20580;-63
2024/04/18 05:07:31;;;;;;;11.68;6.20;;;1.90;99.90;;;;;;7379050;19;20034;-63
2024/04/18 05:10:19;;;;;;;13.80;6.13;;;1.90;99.90;;;;;;7379011;19;20042;-64
2024/04/18 05:12:45;;;;;;;8.80;5.95;;;2.00;99.90;;;;;;7381070;19;20368;-63
2024/04/18 05:15:31;;;;;;;11.10;5.50;;;2.10;99.90;;;;;;7380846;19;20497;-63
2024/04/18 05:18:00;;;;;;;10.18;6.07;;;2.20;99.90;;;;;;7379751;19;20026;-65
2024/04/18 05:20:26;;;;;;;9.68;5.47;;;2.20;99.90;;;;;;7377033;19;20381;-64
2024/04/18 05:22:53;;;;;;;7.93;4.72;;;2.40;99.90;;;;;;7379884;19;20014;-63
2024/04/18 05:25:19;;;;;;;8.13;4.72;;;2.40;99.90;;;;;;7380536;19;20103;-63
2024/04/18 05:27:55;;;;;;;11.40;5.28;;;2.50;99.90;;;;;;7375568;19;20629;-63
2024/04/18 05:33:18;;;;;;;8.43;4.65;;;2.70;99.90;;;;;;7380979;19;20090;-63
2024/04/18 05:35:45;;;;;;;8.80;4.35;;;2.80;99.90;;;;;;7380183;19;20023;-64
2024/04/18 05:38:11;;;;;;;7.55;4.68;;;2.90;99.90;;;;;;7377315;19;20018;-64
2024/04/18 05:40:37;;;;;;;8.85;4.43;;;2.90;99.90;;;;;;7382903;19;20014;-65
2024/04/18 05:43:03;;;;;;;9.95;5.05;;;3.00;99.90;;;;;;7375295;19;20030;-63
2024/04/18 05:45:49;;;;;;;11.23;4.80;;;3.10;99.90;;;;;;7374142;19;20094;-64
2024/04/18 05:48:17;;;;;;;10.63;4.60;;;3.40;99.90;;;;;;7372777;19;20081;-66
2024/04/18 05:50:44;;;;;;;9.40;4.22;;;3.60;99.90;;;;;;7376557;19;20109;-64
2024/04/18 05:53:20;;;;;;;4.90;3.58;;;3.80;99.90;;;;;;7378072;19;20022;-63
2024/04/18 05:55:52;;;;;;;;;;;3.90;99.90;;;;;;7377589;19;20014;-62
2024/04/18 05:58:19;;;;;;;6.03;3.33;;;4.10;99.90;;;;;;7378438;19;19923;-62
2024/04/18 06:00:55;;;;;;;6.47;2.80;;;4.20;99.90;;;;;;7378867;19;20121;-63
2024/04/18 06:03:21;;;;;;;6.50;3.55;;;4.40;99.90;;;;;;7378518;19;20097;-65
2024/04/18 06:05:48;;;;;;;4.47;2.65;;;4.60;99.90;;;;;;7379602;19;20425;-65
2024/04/18 06:08:16;;;;;;;5.55;2.95;;;4.80;99.90;;;;;;7375169;19;20026;-64
2024/04/18 06:10:43;;;;;;;7.03;3.13;;;5.00;99.90;;;;;;7380307;19;20007;-64
2024/04/18 06:13:20;;;;;;;5.55;2.78;;;5.10;99.90;;;;;;7377867;19;20097;-64
2024/04/18 06:15:47;;;;;;;5.72;2.53;;;5.30;99.90;;;;;;7379192;19;20022;-63
2024/04/18 06:18:13;;;;;;;4.32;2.50;;;5.40;99.90;;;;;;7376924;19;20029;-63
2024/04/18 06:20:47;;;;;;;5.50;2.72;;;5.60;99.90;;;;;;7375938;19;20118;-65
2024/04/18 06:23:14;;;;;;;6.55;2.80;;;5.80;99.90;;;;;;7377152;19;20018;-65
2024/04/18 06:25:41;;;;;;;4.57;2.80;;;5.90;99.90;;;;;;7375451;19;20022;-65
2024/04/18 06:28:12;;;;;;;6.47;2.70;;;6.00;99.90;;;;;;7379849;19;20022;-64
2024/04/18 06:30:39;;;;;;;7.03;2.67;;;6.00;99.90;;;;;;7379959;19;20665;-65
2024/04/18 06:33:10;;;;;;;5.97;2.70;;;6.10;99.90;;;;;;7377022;19;20476;-67
2024/04/18 06:35:36;;;;;;;6.45;2.50;;;6.20;99.90;;;;;;7376129;19;20740;-65
2024/04/18 06:38:03;;;;;;;5.60;2.08;;;6.30;99.90;;;;;;7375817;19;20010;-64
2024/04/18 06:40:29;;;;;;;6.13;2.53;;;6.50;99.90;;;;;;7378856;19;20031;-64
2024/04/18 06:42:55;;;;;;;6.78;2.08;;;6.70;99.90;;;;;;7371523;19;20270;-64
2024/04/18 06:45:22;;;;;;;4.95;2.33;;;6.90;99.90;;;;;;7377499;19;20025;-64
2024/04/18 06:47:48;;;;;;;5.15;2.13;;;7.00;99.90;;;;;;7373588;19;20014;-63
2024/04/18 06:50:17;;;;;;;4.68;2.05;;;7.40;99.90;;;;;;7375894;19;20018;-63
2024/04/18 06:52:45;;;;;;;3.30;2.03;;;7.50;99.90;;;;;;7374290;19;20092;-63
2024/04/18 06:55:12;;;;;;;6.32;2.50;;;7.70;58.30;;;;;;7375663;19;20022;-67
2024/04/18 06:57:55;;;;;;;5.63;1.67;;;7.90;32.90;;;;;;7407706;19;20325;-63
2024/04/18 07:00:22;;;;;;;4.25;1.80;;;8.20;1.00;;;;;;7412474;19;20039;-63
2024/04/18 07:02:49;;;;;;;4.60;2.00;;;8.30;1.00;;;;;;7410500;19;20467;-63
2024/04/18 07:05:33;;;;;;;6.78;2.17;;;8.50;1.00;;;;;;7409452;19;20017;-64
2024/04/18 07:08:18;;;;;;;3.97;1.73;;;9.10;29.70;;;;;;7410849;19;20066;-64
2024/04/18 07:10:44;;;;;;;6.03;2.22;;;9.80;48.90;;;;;;7409470;19;20041;-64
2024/04/18 07:13:30;;;;;;;7.10;1.83;;;10.10;99.90;;;;;;7410352;19;20077;-63
2024/04/18 07:15:59;;;;;;;5.00;1.90;;;10.30;99.90;;;;;;7410121;19;20612;-64
2024/04/18 07:18:43;;;;;;;7.75;2.22;;;10.40;1.00;;;;;;7410532;19;20011;-63
2024/04/18 07:21:14;;;;;;;4.15;1.88;;;10.20;99.90;;;;;;7403454;19;20131;-63
2024/04/18 07:23:40;;;;;;;4.07;1.55;;;10.00;59.80;;;;;;7407590;19;20010;-64
2024/04/18 07:26:07;;;;;;;4.43;1.80;;;9.90;99.90;;;;;;7412157;19;20448;-63
2024/04/18 07:28:33;;;;;;;7.50;2.30;;;9.70;99.90;;;;;;7406859;19;20027;-63
2024/04/18 07:31:00;;;;;;;6.53;2.03;;;9.60;99.90;;;;;;7409084;19;20021;-63
2024/04/18 07:33:26;;;;;;;6.88;2.10;;;9.50;99.90;;;;;;7409460;19;20007;-66
2024/04/18 07:35:56;;;;;;;5.78;1.90;;;9.40;71.90;;;;;;7407031;19;20026;-64
2024/04/18 07:38:27;;;;;;;6.03;1.73;;;9.40;1.00;;;;;;7406844;19;20054;-65
2024/04/18 07:40:53;;;;;;;5.22;2.47;;;9.60;96.60;;;;;;7405868;19;20022;-65
2024/04/18 07:43:20;;;;;;;4.03;1.75;;;9.60;99.90;;;;;;7407344;19;20460;-66
2024/04/18 07:45:46;;;;;;;2.75;1.60;;;9.70;99.90;;;;;;7408066;19;20029;-63
2024/04/18 07:48:13;;;;;;;4.85;1.95;;;9.80;99.90;;;;;;7409024;19;20026;-65
2024/04/18 07:50:39;;;;;;;4.45;1.85;;;9.60;1.00;;;;;;7407015;19;20018;-66
2024/04/18 07:53:06;;;;;;;4.70;1.77;;;9.70;94.70;;;;;;7408710;19;20018;-65
2024/04/18 07:55:32;;;;;;;7.53;2.15;;;9.60;99.90;;;;;;7408424;19;20026;-65
2024/04/18 07:57:58;;;;;;;5.07;1.90;;;9.40;96.60;;;;;;7405724;19;20031;-63
2024/04/18 08:00:25;;;;;;;4.03;1.83;;;9.40;99.90;;;;;;7409471;19;20052;-63
2024/04/18 08:02:51;;;;;;;5.47;1.95;;;9.40;99.90;;;;;;7408418;19;20029;-63
2024/04/18 08:05:18;;;;;;;5.45;2.05;;;9.50;15.10;;;;;;7408689;19;20038;-63
2024/04/18 08:07:44;;;;;;;6.65;1.60;;;9.60;99.90;;;;;;7399891;19;20367;-63
2024/04/18 08:10:10;;;;;;;5.97;1.77;;;9.80;99.60;;;;;;7381437;19;20022;-66
2024/04/18 08:12:36;;;;;;;5.55;1.80;;;10.00;11.40;;;;;;7380263;19;20049;-63
2024/04/18 08:15:03;;;;;;;6.07;2.03;;;10.20;1.00;;;;;;7380413;19;20035;-64
2024/04/18 08:17:32;;;;;;;5.22;1.80;;;10.50;1.00;;;;;;7375456;19;20015;-63
2024/04/18 08:19:58;;;;;;;3.67;1.38;;;10.60;1.00;;;;;;7379358;19;20542;-63
2024/04/18 08:22:25;;;;;;;6.32;2.13;;;10.60;1.00;;;;;;7377698;19;20025;-64
2024/04/18 08:24:51;;;;;;;4.68;1.38;;;10.80;1.00;;;;;;7379007;19;20026;-63
2024/04/18 08:27:17;;;;;;;4.22;1.65;;;10.90;99.90;;;;;;7378735;19;20090;-64
2024/04/18 08:29:43;;;;;;;6.95;3.03;;;11.00;99.90;;;;;;7378672;19;20015;-64
2024/04/18 08:32:10;;;;;;;4.20;1.08;;;11.60;99.90;;;;;;7381427;19;20019;-63
2024/04/18 08:34:36;;;;;;;4.80;1.67;;;12.50;99.90;;;;;;7380955;19;20018;-65
2024/04/18 08:37:02;;;;;;;6.82;1.58;;;13.40;99.90;;;;;;7376853;19;20074;-65
2024/04/18 08:39:29;;;;;;;3.00;0.93;;;13.90;1.00;;;;;;7378742;19;20094;-64
2024/04/18 08:41:58;;;;;;;4.60;1.30;;;13.80;1.00;;;;;;7378451;19;20030;-64
2024/04/18 08:44:25;;;;;;;5.75;1.17;;;13.10;1.00;;;;;;7378429;19;20022;-64
2024/04/18 08:46:52;;;;;;;4.38;1.20;;;12.50;1.00;;;;;;7377636;19;20034;-64
2024/04/18 08:49:19;;;;;;;5.40;1.30;;;12.30;1.00;;;;;;7376454;19;20014;-64
2024/04/18 08:51:46;;;;;;;5.05;1.50;;;11.90;6.30;;;;;;7378996;19;20093;-65
2024/04/18 08:54:12;;;;;;;5.03;1.85;;;11.60;10.00;;;;;;7376054;19;20125;-64
2024/04/18 08:56:45;;;;;;;5.07;1.10;;;11.90;67.60;;;;;;7375953;19;20129;-64
2024/04/18 08:59:13;;;;;;;5.20;1.45;;;12.10;91.90;;;;;;7377251;19;20086;-64
2024/04/18 09:01:42;;;;;;;5.45;1.33;;;12.00;30.90;;;;;;7379433;19;20410;-65
2024/04/18 09:04:08;;;;;;;5.85;1.30;;;12.30;93.20;;;;;;7377572;19;20020;-65
2024/04/18 09:06:35;;;;;;;4.65;1.23;;;12.50;22.00;;;;;;7377674;19;20021;-65
2024/04/18 09:09:01;;;;;;;3.05;1.05;;;12.40;1.00;;;;;;7375567;19;20531;-65
2024/04/18 09:11:29;;;;;;;4.40;0.98;;;13.00;1.00;;;;;;7376169;19;20014;-64
2024/04/18 09:13:56;;;;;;;5.82;0.98;;;13.90;1.00;;;;;;7376454;19;21013;-64
2024/04/18 09:16:23;;;;;;;7.50;4.00;;;14.70;99.90;;;;;;7377361;19;20022;-65
2024/04/18 09:18:50;;;;;;;2.83;0.90;;;15.30;99.90;;;;;;7372963;19;20500;-65
2024/04/18 09:21:16;;;;;;;2.35;0.98;;;16.20;99.90;;;;;;7377320;19;20022;-65
2024/04/18 09:23:43;;;;;;;5.35;0.80;;;16.70;99.90;;;;;;7377104;19;20405;-65
2024/04/18 09:26:09;;;;;;;4.13;0.90;;;15.60;99.90;;;;;;7379455;19;20014;-64
2024/04/18 09:28:40;;;;;;;6.28;1.98;;;15.40;99.90;;;;;;7376203;19;20014;-64
2024/04/18 09:31:07;;;;;;;2.03;0.90;;;14.80;99.90;;;;;;7373577;19;20675;-65
2024/04/18 09:33:33;;;;;;;3.85;1.10;;;14.30;99.90;;;;;;7375995;19;20014;-65
2024/04/18 09:36:00;;;;;;;2.13;0.60;;;13.70;99.90;;;;;;7374855;19;20018;-64
2024/04/18 09:38:34;;;;;;;4.38;1.02;;;13.10;99.90;;;;;;7378829;19;20010;-64
2024/04/18 09:41:01;;;;;;;3.55;1.02;;;12.60;99.90;;;;;;7374784;19;20010;-64
2024/04/18 09:44:01;;;;;;;4.15;1.40;;;12.40;99.90;;;;;;7377527;19;20021;-64
2024/04/18 09:46:31;;;;;;;3.60;1.00;;;12.10;99.90;;;;;;7372529;19;20031;-64
2024/04/18 09:48:59;;;;;;;4.93;0.95;;;12.00;99.90;;;;;;7372844;19;20042;-64
2024/04/18 09:51:27;;;;;;;3.38;0.85;;;11.80;99.90;;;;;;7377375;19;20035;-64
2024/04/18 09:53:55;;;;;;;3.28;0.82;;;11.60;99.90;;;;;;7375575;19;20510;-64
2024/04/18 09:56:25;;;;;;;4.78;1.27;;;11.60;99.90;;;;;;7375726;19;20019;-64
2024/04/18 09:58:52;;;;;;;1.85;0.77;;;11.50;99.90;;;;;;7375522;19;20022;-64
2024/04/18 10:01:19;;;;;;;2.53;0.80;;;11.40;99.90;;;;;;7375606;19;20049;-65
2024/04/18 10:03:46;;;;;;;2.45;0.98;;;11.80;99.90;;;;;;7373872;19;20413;-64
2024/04/18 10:06:15;;;;;;;5.70;2.05;;;12.70;99.90;;;;;;7377353;19;20018;-64
2024/04/18 10:08:50;;;;;;;2.33;0.60;;;13.80;99.90;;;;;;7374400;19;20054;-65
2024/04/18 10:11:23;;;;;;;3.63;0.93;;;15.20;99.90;;;;;;7373544;19;20022;-64
2024/04/18 10:13:49;;;;;;;4.10;0.90;;;16.70;99.90;;;;;;7374898;19;20023;-64
2024/04/18 10:16:15;;;;;;;3.53;0.90;;;16.70;99.90;;;;;;7374689;19;20022;-64
2024/04/18 10:18:44;;;;;;;4.97;0.90;;;16.40;99.90;;;;;;7374394;19;20026;-64
2024/04/18 10:21:25;;;;;;;2.88;0.80;;;17.30;99.90;;;;;;7372244;19;20022;-65
2024/04/18 10:23:53;;;;;;;3.20;0.82;;;16.10;99.90;;;;;;7374619;19;20091;-64
2024/04/18 10:26:21;;;;;;;3.25;0.80;;;16.70;99.90;;;;;;7376499;19;20022;-65
2024/04/18 10:28:50;;;;;;;3.58;0.90;;;16.90;99.90;;;;;;7375702;19;20034;-64
2024/04/18 10:31:17;;;;;;;6.70;1.27;;;16.90;99.90;;;;;;7375915;19;20033;-66
2024/04/18 10:33:44;;;;;;;22.45;3.08;;;16.40;99.90;;;;;;7375747;19;20025;-65
2024/04/18 10:36:15;;;;;;;5.43;1.10;;;16.60;99.90;;;;;;7374191;19;20034;-66
2024/04/18 10:38:46;;;;;;;3.85;0.90;;;16.20;99.90;;;;;;7374447;19;20022;-66
2024/04/18 10:41:17;;;;;;;3.90;1.17;;;14.90;99.90;;;;;;7372230;19;20053;-65
2024/04/18 10:43:44;;;;;;;3.42;0.70;;;14.50;99.90;;;;;;7373968;19;20011;-64
2024/04/18 10:46:12;;;;;;;3.67;1.10;;;14.40;99.90;;;;;;7374252;19;20035;-64
2024/04/18 10:48:42;;;;;;;4.00;1.38;;;13.80;99.90;;;;;;7375887;19;20018;-65
2024/04/18 10:51:08;;;;;;;4.43;1.00;;;13.60;99.90;;;;;;7374717;19;20082;-65
2024/04/18 10:53:40;;;;;;;5.22;1.10;;;13.10;99.90;;;;;;7374684;19;20041;-66
2024/04/18 10:56:06;;;;;;;2.13;0.80;;;13.20;99.90;;;;;;7372029;19;20435;-66
2024/04/18 10:58:32;;;;;;;3.97;0.93;;;13.20;99.90;;;;;;7375311;19;20023;-65
2024/04/18 11:01:02;;;;;;;2.40;0.95;;;13.20;99.90;;;;;;7373364;19;20126;-65
2024/04/18 11:03:29;;;;;;;5.75;1.27;;;13.40;99.90;;;;;;7372254;19;20053;-64
2024/04/18 11:05:56;;;;;;;3.80;0.98;;;13.60;99.90;;;;;;7374660;19;20122;-66
2024/04/18 11:08:28;;;;;;;4.20;1.08;;;14.50;99.90;;;;;;7375145;19;20447;-65
2024/04/18 11:10:55;;;;;;;4.72;1.13;;;14.40;99.90;;;;;;7372057;19;20015;-65
2024/04/18 11:13:21;;;;;;;3.47;1.35;;;14.10;99.90;;;;;;7372158;19;20026;-65
2024/04/18 11:15:48;;;;;;;6.40;1.30;;;13.40;99.90;;;;;;7374768;19;20082;-65
2024/04/18 11:18:14;;;;;;;6.63;1.65;;;12.80;99.90;;;;;;7374627;19;20025;-65
2024/04/18 11:20:41;;;;;;;6.40;1.73;;;12.50;99.90;;;;;;7373367;19;20027;-65
2024/04/18 11:23:08;;;;;;;3.88;1.45;;;12.10;99.90;;;;;;7371335;19;20019;-65
2024/04/18 11:25:37;;;;;;;4.93;1.75;;;12.10;99.90;;;;;;7372948;19;20026;-65
2024/04/18 11:28:07;;;;;;;6.43;1.77;;;11.80;1.00;;;;;;7374331;19;20036;-66
2024/04/18 11:30:38;;;;;;;5.63;2.05;;;11.60;1.00;;;;;;7369897;19;20022;-65
2024/04/18 11:33:08;;;;;;;5.63;1.20;;;11.60;1.00;;;;;;7374277;19;20083;-65
2024/04/18 11:35:34;;;;;;;5.75;1.30;;;11.60;1.00;;;;;;7372828;19;20033;-66
2024/04/18 11:38:11;;;;;;;8.15;1.80;;;11.50;1.00;;;;;;7371395;19;20015;-65
2024/04/18 11:40:42;;;;;;;5.20;1.42;;;11.80;1.00;;;;;;7373040;19;20026;-65
2024/04/18 11:43:09;;;;;;;4.32;1.73;;;11.80;1.00;;;;;;7373160;19;20727;-65
2024/04/18 11:45:36;;;;;;;6.50;1.45;;;11.80;1.00;;;;;;7380676;19;20420;-65
2024/04/18 11:48:04;;;;;;;5.32;1.90;;;12.40;1.00;;;;;;7377496;19;20775;-65
2024/04/18 11:50:30;;;;;;;12.13;5.85;;;13.60;99.90;;;;;;7377402;19;20022;-66
2024/04/18 11:52:57;;;;;;;4.35;1.40;;;14.80;99.90;;;;;;7377957;19;20497;-66
2024/04/18 11:55:32;;;;;;;4.65;1.40;;;15.20;99.90;;;;;;7379689;19;20023;-66
2024/04/18 11:58:21;;;;;;;20.40;14.68;;;14.80;99.90;;;;;;7377518;19;20026;-66
2024/04/18 12:00:47;;;;;;;7.47;1.40;;;15.40;99.90;;;;;;7375566;19;20609;-66
2024/04/18 12:03:13;;;;;;;3.22;1.33;;;15.20;99.90;;;;;;7379879;19;20094;-65
2024/04/18 12:05:53;;;;;;;4.10;1.17;;;15.60;99.90;;;;;;7378608;19;20710;-65
2024/04/18 12:08:20;;;;;;;5.63;1.45;;;15.00;99.90;;;;;;7380010;19;20031;-64
2024/04/18 12:10:46;;;;;;;4.50;1.30;;;14.90;99.90;;;;;;7376861;19;20115;-65
2024/04/18 12:13:33;;;;;;;3.22;1.40;;;15.00;99.90;;;;;;7376396;19;20034;-65
2024/04/18 12:15:59;;;;;;;3.92;1.50;;;16.00;99.90;;;;;;7378203;19;20022;-65
2024/04/18 12:18:28;;;;;;;5.13;0.90;;;15.40;99.90;;;;;;7378793;19;20051;-65
2024/04/18 12:20:54;;;;;;;2.08;0.85;;;15.30;99.90;;;;;;7376891;19;20018;-66
2024/04/18 12:23:42;;;;;;;;;;;14.70;99.90;;;;;;7381987;19;20022;-66
2024/04/18 12:26:10;;;;;;;12.32;2.17;;;14.40;99.90;;;;;;7377294;19;19926;-66
2024/04/18 12:28:46;;;;;;;6.78;1.40;;;13.80;99.90;;;;;;7379387;19;20029;-66
2024/04/18 12:31:12;;;;;;;3.63;0.90;;;13.40;99.90;;;;;;7378126;19;20395;-67
2024/04/18 12:34:05;;;;;;;4.35;1.00;;;13.20;99.90;;;;;;7378942;19;20534;-66
2024/04/18 12:36:31;;;;;;;5.13;1.10;;;13.00;99.90;;;;;;7379066;19;20025;-66
2024/04/18 12:39:15;;;;;;;5.88;1.60;;;12.70;99.90;;;;;;7368798;19;20086;-66
2024/04/18 12:41:42;;;;;;;3.70;1.23;;;12.30;99.90;;;;;;7376681;19;20031;-66
2024/04/18 12:44:09;;;;;;;8.02;1.30;;;12.10;99.90;;;;;;7378880;19;20015;-65
2024/04/18 12:46:45;;;;;;;7.25;2.00;;;12.10;99.90;;;;;;7376627;19;20014;-65
2024/04/18 12:49:11;;;;;;;4.53;1.17;;;12.00;99.90;;;;;;7376165;19;20487;-65
2024/04/18 12:51:37;;;;;;;5.57;1.52;;;12.20;99.90;;;;;;7376442;19;20015;-66
2024/04/18 12:54:03;;;;;;;15.43;2.95;;;12.30;99.90;;;;;;7376283;19;20094;-66
2024/04/18 12:56:47;;;;;;;10.32;3.35;;;12.50;99.90;;;;;;7377006;19;20022;-70
2024/04/18 12:59:20;;;;;;;8.57;1.27;;;12.90;99.90;;;;;;7376714;19;20039;-65
2024/04/18 13:01:46;;;;;;;5.18;1.75;;;13.40;99.90;;;;;;7375699;19;20661;-64
2024/04/18 13:04:19;;;;;;;6.25;1.40;;;13.80;99.90;;;;;;7376042;19;20026;-64
2024/04/18 13:06:45;;;;;;;5.22;2.58;;;14.30;99.90;;;;;;7379015;19;20035;-64
2024/04/18 13:09:30;;;;;;;7.57;1.83;;;14.50;99.90;;;;;;7377500;19;20014;-65
2024/04/18 13:12:01;;;;;;;3.47;1.27;;;14.50;99.90;;;;;;7371761;19;20515;-64
2024/04/18 13:14:47;;;;;;;5.20;1.02;;;14.60;99.90;;;;;;7378747;19;20052;-64
2024/04/18 13:17:14;;;;;;;12.10;2.10;;;14.70;99.90;;;;;;7375934;19;20138;-64